Time;durP1;ratioP1;P1;durP2;ratioP2;P2;SDS_P1;SDS_P2;PMS_P1;PMS_P2;Temp;Humidity;BMP_temperature;BMP_pressure;BME280_temperature;BME280_humidity;BME280_pressure;Samples;Min_cycle;Max_cycle;Signal;HPM_P1;HPM_P2
2022/10/03 00:03:22;;;;;;;;;;;;;;;14.68;100.00;96787.69;10416786;28;97161;-89
2022/10/03 00:08:42;;;;;;;4.07;1.40;;;;;;;14.71;100.00;96804.00;10420732;27;97063;-88
2022/10/03 00:13:54;;;;;;;3.92;1.63;;;;;;;14.62;100.00;96799.66;10426432;27;102599;-88
2022/10/03 00:19:06;;;;;;;2.05;1.60;;;;;;;14.51;100.00;96799.97;10414793;28;97084;-88
2022/10/03 00:24:23;;;;;;;2.42;1.25;;;;;;;14.41;100.00;96807.16;10413209;27;96953;-88
2022/10/03 00:30:15;;;;;;;2.63;1.27;;;;;;;14.42;100.00;96806.16;10419773;27;96841;-88
2022/10/03 00:35:35;;;;;;;1.77;1.20;;;;;;;14.37;100.00;96807.47;10325800;28;96996;-88
2022/10/03 00:41:30;;;;;;;2.30;1.15;;;;;;;14.31;100.00;96797.56;10292398;28;97276;-89
2022/10/03 00:46:57;;;;;;;9.10;1.63;;;;;;;14.29;100.00;96799.50;10182605;28;96971;-88
2022/10/03 00:52:19;;;;;;;1.67;1.15;;;;;;;14.23;100.00;96805.41;10183039;28;97109;-88
2022/10/03 00:57:35;;;;;;;2.60;1.30;;;;;;;14.13;100.00;96810.75;10182275;28;97056;-89
2022/10/03 01:02:49;;;;;;;2.17;1.33;;;;;;;14.03;100.00;96809.22;10205321;28;96908;-88
2022/10/03 01:08:15;;;;;;;3.57;1.30;;;;;;;13.82;100.00;96815.66;10246082;28;97060;-88
2022/10/03 01:13:31;;;;;;;1.70;1.00;;;;;;;13.74;100.00;96805.09;10294546;28;97047;-89
2022/10/03 01:18:49;;;;;;;2.60;1.27;;;;;;;13.62;100.00;96807.97;10413910;27;98282;-88
2022/10/03 01:24:33;;;;;;;2.67;1.02;;;;;;;13.39;100.00;96806.81;10424732;27;98624;-89
2022/10/03 01:35:26;;;;;;;4.47;1.30;;;;;;;13.01;100.00;96814.00;10433264;27;97530;-87
2022/10/03 01:40:34;;;;;;;3.30;1.25;;;;;;;13.04;100.00;96818.94;10429912;27;97160;-87
2022/10/03 01:45:48;;;;;;;2.80;1.10;;;;;;;13.02;100.00;96797.28;10427910;27;96819;-88
2022/10/03 01:51:01;;;;;;;3.25;0.98;;;;;;;12.99;100.00;96802.81;10426376;27;97139;-88
2022/10/03 01:56:12;;;;;;;1.48;0.93;;;;;;;12.95;100.00;96796.25;10408684;27;98133;-88
2022/10/03 02:01:26;;;;;;;2.78;0.90;;;;;;;12.87;100.00;96802.19;10406963;27;97058;-88
2022/10/03 02:06:41;;;;;;;1.92;1.17;;;;;;;12.77;100.00;96802.25;10410805;28;96866;-88
2022/10/03 02:12:08;;;;;;;2.83;0.90;;;;;;;12.67;100.00;96801.50;10409832;27;98657;-88
2022/10/03 02:17:22;;;;;;;2.25;1.13;;;;;;;12.47;100.00;96804.22;10405690;27;97154;-88
2022/10/03 02:22:32;;;;;;;2.13;0.77;;;;;;;12.39;100.00;96801.50;10416505;27;98123;-88
2022/10/03 02:27:57;;;;;;;3.40;1.10;;;;;;;12.27;100.00;96805.28;10412296;28;96812;-88
2022/10/03 02:33:38;;;;;;;4.05;1.42;;;;;;;12.21;100.00;96811.09;10405983;27;97553;-88
2022/10/03 02:39:07;;;;;;;5.15;1.23;;;;;;;12.21;100.00;96811.09;10411878;27;97283;-88
2022/10/03 02:44:34;;;;;;;5.35;1.20;;;;;;;12.25;100.00;96810.66;10421855;27;96722;-88
2022/10/03 02:50:06;;;;;;;2.38;1.25;;;;;;;12.23;100.00;96814.38;10431922;27;97135;-87
2022/10/03 02:55:36;;;;;;;2.90;1.20;;;;;;;12.18;100.00;96811.34;10424401;27;97236;-88
2022/10/03 03:01:19;;;;;;;2.30;0.90;;;;;;;12.15;100.00;96807.25;10406575;27;97958;-88
2022/10/03 03:06:51;;;;;;;3.58;1.00;;;;;;;12.17;100.00;96807.09;10434944;27;97186;-88
2022/10/03 03:12:46;;;;;;;2.75;1.10;;;;;;;12.12;100.00;96803.09;10409047;27;97052;-87
2022/10/03 03:17:59;;;;;;;3.05;1.05;;;;;;;12.20;100.00;96809.44;10299773;28;97222;-87
2022/10/03 03:23:30;;;;;;;2.80;0.93;;;;;;;12.16;100.00;96802.81;10302907;28;98612;-87
2022/10/03 03:28:43;;;;;;;3.33;1.10;;;;;;;12.18;100.00;96795.66;10299599;28;98636;-87
2022/10/03 03:33:58;;;;;;;2.03;0.93;;;;;;;12.10;100.00;96789.34;10303518;28;98102;-87
2022/10/03 03:39:14;;;;;;;2.30;1.20;;;;;;;12.09;100.00;96784.25;10304309;28;98358;-87
2022/10/03 03:44:31;;;;;;;2.72;1.10;;;;;;;12.09;100.00;96782.47;10304236;28;97382;-88
2022/10/03 03:49:52;;;;;;;2.22;0.93;;;;;;;12.11;100.00;96785.75;10336295;27;98900;-88
2022/10/03 03:55:07;;;;;;;4.25;1.08;;;;;;;11.95;100.00;96777.66;10430808;27;97301;-86
2022/10/03 04:00:16;;;;;;;;;;;;;;;11.82;100.00;96779.81;10433553;27;99167;-87
2022/10/03 04:05:34;;;;;;;3.72;0.82;;;;;;;11.85;100.00;96776.88;10421419;27;96984;-87
2022/10/03 04:10:46;;;;;;;1.77;0.95;;;;;;;11.80;100.00;96772.09;10426529;27;97173;-86
2022/10/03 04:16:05;;;;;;;2.40;0.80;;;;;;;11.83;100.00;96768.34;10428323;27;97549;-84
2022/10/03 04:21:36;;;;;;;3.22;0.98;;;;;;;11.84;100.00;96759.53;10426145;27;98075;-84
2022/10/03 04:27:02;;;;;;;2.90;0.90;;;;;;;11.82;100.00;96758.84;10433429;27;97099;-84
2022/10/03 04:32:22;;;;;;;1.40;0.93;;;;;;;11.76;100.00;96751.56;10429755;27;97112;-84
2022/10/03 04:37:39;;;;;;;2.10;0.88;;;;;;;11.68;100.00;96758.34;10423148;27;96845;-85
2022/10/03 04:42:54;;;;;;;2.97;0.90;;;;;;;11.62;100.00;96753.66;10402860;27;96784;-85
2022/10/03 04:48:09;;;;;;;2.75;0.90;;;;;;;11.56;100.00;96743.78;10407355;27;96853;-85
2022/10/03 04:53:23;;;;;;;3.50;1.20;;;;;;;11.52;100.00;96742.41;10410711;28;96839;-85
2022/10/03 04:58:36;;;;;;;4.75;1.30;;;;;;;11.49;100.00;96733.03;10409416;27;96928;-85
2022/10/03 05:03:47;;;;;;;4.95;1.08;;;;;;;11.43;100.00;96717.91;10397215;28;97497;-84
2022/10/03 05:08:59;;;;;;;3.65;1.35;;;;;;;11.28;100.00;96725.34;10408052;28;97535;-85
2022/10/03 05:14:10;;;;;;;5.88;1.30;;;;;;;11.16;100.00;96721.22;10406567;27;97134;-84
2022/10/03 05:19:41;;;;;;;2.42;1.15;;;;;;;11.11;100.00;96731.28;10404342;27;98734;-86
2022/10/03 05:24:54;;;;;;;3.42;1.25;;;;;;;11.07;100.00;96737.72;10411980;28;97382;-86
2022/10/03 05:30:01;;;;;;;2.83;0.98;;;;;;;11.04;100.00;96733.63;10401125;27;96821;-85
2022/10/03 05:35:29;;;;;;;5.53;1.20;;;;;;;11.04;100.00;96723.16;10415033;27;97375;-85
2022/10/03 05:40:35;;;;;;;1.75;0.65;;;;;;;11.03;100.00;96723.31;10410822;27;97048;-86
2022/10/03 05:45:49;;;;;;;3.88;0.90;;;;;;;10.91;100.00;96738.28;10405444;27;96987;-84
2022/10/03 05:51:31;;;;;;;2.28;0.88;;;;;;;10.78;100.00;96730.72;10413374;27;97341;-85
2022/10/03 05:56:49;;;;;;;3.20;1.00;;;;;;;10.78;100.00;96738.56;10409265;27;97127;-85
2022/10/03 06:02:10;;;;;;;2.08;1.10;;;;;;;10.70;100.00;96731.41;10405081;27;96885;-85
2022/10/03 06:07:25;;;;;;;4.60;0.93;;;;;;;10.76;100.00;96740.50;10409278;27;96824;-83
2022/10/03 06:12:35;;;;;;;3.10;1.20;;;;;;;10.86;100.00;96746.56;10418586;27;98289;-85
2022/10/03 06:17:57;;;;;;;2.40;0.80;;;;;;;10.93;100.00;96752.03;10392198;27;96848;-85
2022/10/03 06:23:39;;;;;;;3.08;0.85;;;;;;;10.95;100.00;96761.41;10419480;27;96878;-85
2022/10/03 06:29:11;;;;;;;2.70;1.30;;;;;;;10.89;100.00;96767.19;10439681;27;96660;-85
2022/10/03 06:34:47;;;;;;;3.28;1.35;;;;;;;10.90;100.00;96771.47;10386809;27;97758;-87
2022/10/03 06:40:30;;;;;;;3.25;1.20;;;;;;;10.89;100.00;96777.63;10416260;27;97375;-87
2022/10/03 06:45:55;;;;;;;32.20;12.73;;;;;;;10.94;100.00;96775.44;10400352;27;96989;-85
2022/10/03 06:51:10;;;;;;;;;;;;;;;11.00;100.00;96792.38;10428918;27;97096;-85
2022/10/03 06:56:57;;;;;;;14.57;6.70;;;;;;;11.07;100.00;96790.03;10425640;27;97527;-84
2022/10/03 07:02:51;;;;;;;6.10;2.85;;;;;;;11.20;100.00;96797.63;10234441;28;97654;-86
2022/10/03 07:08:28;;;;;;;6.18;1.80;;;;;;;11.38;100.00;96792.53;10087664;28;97463;-86
2022/10/03 07:14:13;;;;;;;7.50;2.25;;;;;;;11.53;100.00;96801.59;10086172;28;97165;-84
2022/10/03 07:19:50;;;;;;;5.07;2.17;;;;;;;11.68;100.00;96799.41;10090141;28;96801;-85
2022/10/03 07:25:25;;;;;;;4.20;2.05;;;;;;;11.76;100.00;96801.28;10036492;29;98021;-85
2022/10/03 07:30:47;;;;;;;4.97;1.88;;;;;;;11.88;100.00;96805.41;10054544;28;97840;-85
2022/10/03 07:41:56;;;;;;;3.17;1.17;;;;;;;12.16;100.00;96814.13;10256165;28;96880;-86
2022/10/03 07:47:33;;;;;;;3.17;1.10;;;;;;;12.25;100.00;96807.22;10291051;28;97076;-85
2022/10/03 07:52:53;;;;;;;3.55;1.50;;;;;;;12.39;100.00;96816.41;10290611;28;97012;-85
2022/10/03 07:58:20;;;;;;;2.33;1.50;;;;;;;12.57;100.00;96821.69;10288775;28;97132;-86
2022/10/03 08:03:55;;;;;;;3.05;1.00;;;;;;;12.71;100.00;96823.81;10378224;28;96741;-84
2022/10/03 08:09:33;;;;;;;2.35;1.15;;;;;;;12.83;100.00;96830.50;10379308;28;97964;-85
2022/10/03 08:14:50;;;;;;;3.35;1.15;;;;;;;12.96;100.00;96819.69;10377552;28;97284;-84
2022/10/03 08:20:22;;;;;;;5.20;1.27;;;;;;;13.11;100.00;96825.25;10376821;28;96697;-85
2022/10/03 08:25:38;;;;;;;3.85;1.15;;;;;;;13.24;100.00;96828.31;10388772;28;97114;-85
2022/10/03 08:31:08;;;;;;;1.35;1.00;;;;;;;13.34;100.00;96830.03;10419270;28;96736;-85
2022/10/03 08:36:44;;;;;;;1.33;0.98;;;;;;;13.48;100.00;96832.16;10418926;28;96794;-86
2022/10/03 08:42:42;;;;;;;1.55;1.00;;;;;;;13.65;100.00;96837.53;10416751;28;96903;-85
2022/10/03 08:48:27;;;;;;;1.00;0.70;;;;;;;13.83;100.00;96833.06;10417179;27;96795;-85
2022/10/03 08:54:06;;;;;;;1.77;0.82;;;;;;;13.99;100.00;96827.91;10416766;27;96795;-85
2022/10/03 08:59:56;;;;;;;1.95;1.15;;;;;;;14.15;100.00;96834.25;10376070;28;96779;-85
2022/10/03 09:05:34;;;;;;;3.58;1.55;;;;;;;14.27;100.00;96829.56;10375082;28;96789;-86
2022/10/03 09:11:15;;;;;;;1.10;0.63;;;;;;;14.36;100.00;96826.84;10378079;28;96815;-85
2022/10/03 09:16:38;;;;;;;2.40;0.80;;;;;;;14.50;100.00;96814.91;10375841;28;96698;-86
2022/10/03 09:22:11;;;;;;;3.13;0.80;;;;;;;14.63;100.00;96811.03;10375033;28;97670;-85
2022/10/03 09:27:52;;;;;;;2.03;0.82;;;;;;;14.75;100.00;96805.31;10401763;28;96836;-85
2022/10/03 09:33:33;;;;;;;2.38;0.80;;;;;;;14.96;100.00;96811.09;10246680;28;96944;-86
2022/10/03 09:39:02;;;;;;;1.83;0.93;;;;;;;15.18;100.00;96801.78;10247456;28;97126;-85
2022/10/03 09:44:32;;;;;;;2.50;0.93;;;;;;;15.30;100.00;96797.84;10206513;28;97250;-85
2022/10/03 09:50:06;;;;;;;4.20;0.85;;;;;;;15.46;100.00;96803.13;10198343;28;96932;-85
2022/10/03 09:55:37;;;;;;;3.00;0.95;;;;;;;15.63;100.00;96787.34;10216094;28;96916;-85
2022/10/03 10:01:02;;;;;;;1.38;0.85;;;;;;;15.71;100.00;96779.44;10246228;28;97243;-86
2022/10/03 10:06:33;;;;;;;1.90;1.10;;;;;;;15.86;100.00;96777.75;10215567;28;97547;-85
2022/10/03 10:12:04;;;;;;;1.65;1.17;;;;;;;15.91;100.00;96779.06;10390352;27;96850;-86
2022/10/03 10:17:43;;;;;;;2.72;1.35;;;;;;;15.92;100.00;96775.44;10423986;27;97463;-88
2022/10/03 10:23:15;;;;;;;2.90;1.30;;;;;;;16.00;100.00;96778.06;10429787;27;97092;-90
2022/10/03 10:28:51;;;;;;;1.10;1.00;;;;;;;16.10;100.00;96765.50;10422327;27;97220;-85
2022/10/03 10:34:45;;;;;;;3.00;1.05;;;;;;;16.18;100.00;96773.38;10400097;28;96929;-83
2022/10/03 10:40:21;;;;;;;1.02;0.93;;;;;;;16.34;100.00;96777.78;10381498;27;97075;-83
2022/10/03 10:45:39;;;;;;;2.47;0.90;;;;;;;16.38;100.00;96770.34;10211683;28;101611;-84
2022/10/03 10:51:16;;;;;;;1.00;0.68;;;;;;;16.46;100.00;96767.69;10232392;28;97003;-84
2022/10/03 10:57:06;;;;;;;0.70;0.70;;;;;;;16.39;100.00;96767.53;10225536;28;97157;-84
2022/10/03 11:02:43;;;;;;;1.65;0.65;;;;;;;16.41;100.00;96762.91;10217544;28;97411;-84
2022/10/03 11:08:22;;;;;;;0.70;0.65;;;;;;;16.62;100.00;96765.00;10207182;28;97258;-84
2022/10/03 11:14:01;;;;;;;1.13;0.70;;;;;;;16.87;100.00;96764.06;10101634;28;97118;-84
2022/10/03 11:20:01;;;;;;;0.85;0.60;;;;;;;16.99;100.00;96758.19;10139026;28;99007;-83
2022/10/03 11:25:39;;;;;;;2.90;0.73;;;;;;;17.09;100.00;96762.41;10193216;28;97457;-83
2022/10/03 11:31:40;;;;;;;2.15;0.80;;;;;;;17.13;100.00;96755.81;10205843;28;97158;-83
2022/10/03 11:37:17;;;;;;;1.30;0.80;;;;;;;17.28;100.00;96761.13;10205075;28;97543;-84
2022/10/03 11:42:31;;;;;;;1.10;0.63;;;;;;;17.27;100.00;96759.50;10203246;28;97136;-85
2022/10/03 11:47:45;;;;;;;0.70;0.70;;;;;;;17.29;100.00;96763.59;10224256;28;97122;-87
2022/10/03 11:53:10;;;;;;;0.90;0.67;;;;;;;17.22;100.00;96757.38;10348400;28;97100;-87
2022/10/03 11:58:32;;;;;;;0.88;0.80;;;;;;;17.19;100.00;96753.25;10425944;27;98514;-87
2022/10/03 12:03:44;;;;;;;1.42;0.70;;;;;;;17.15;100.00;96753.81;10424978;27;96905;-87
2022/10/03 12:09:02;;;;;;;0.73;0.73;;;;;;;17.13;100.00;96753.16;10417014;27;97217;-85
2022/10/03 12:14:24;;;;;;;4.00;0.77;;;;;;;17.13;100.00;96753.16;10387784;27;97070;-87
2022/10/03 12:19:32;;;;;;;1.75;0.85;;;;;;;17.12;100.00;96756.78;10426609;27;97271;-87
2022/10/03 12:24:40;;;;;;;0.50;0.50;;;;;;;17.13;100.00;96753.16;10413779;27;99073;-84
2022/10/03 12:29:53;;;;;;;0.88;0.45;;;;;;;17.19;100.00;96750.63;10422684;27;97094;-83
2022/10/03 12:35:13;;;;;;;2.40;0.75;;;;;;;17.22;100.00;96760.00;10416578;27;96815;-84
2022/10/03 12:40:21;;;;;;;1.02;0.60;;;;;;;17.19;100.00;96747.16;10417916;27;96810;-86
2022/10/03 12:45:34;;;;;;;1.67;0.70;;;;;;;17.24;100.00;96751.91;10399409;28;96782;-86
2022/10/03 12:50:47;;;;;;;2.13;0.65;;;;;;;17.23;100.00;96740.56;10380722;27;97619;-84
2022/10/03 12:56:05;;;;;;;0.68;0.60;;;;;;;17.23;100.00;96748.47;10374924;27;96890;-85
2022/10/03 13:01:16;;;;;;;1.00;0.70;;;;;;;17.25;100.00;96742.97;10376180;28;96779;-86
2022/10/03 13:06:49;;;;;;;2.00;1.40;;;;;;;17.27;100.00;96733.91;10375797;27;96977;-86
2022/10/03 13:12:15;;;;;;;1.27;0.95;;;;;;;17.25;100.00;96725.34;10378867;27;96890;-86
2022/10/03 13:17:27;;;;;;;0.75;0.70;;;;;;;17.26;100.00;96726.97;10376431;27;99716;-86
2022/10/03 13:22:42;;;;;;;1.13;0.60;;;;;;;17.26;100.00;96742.00;10375243;28;96803;-86
2022/10/03 13:27:50;;;;;;;1.42;0.70;;;;;;;17.30;100.00;96733.56;10373847;28;96841;-87
2022/10/03 13:33:00;;;;;;;0.55;0.50;;;;;;;17.30;100.00;96728.28;10401048;28;97506;-87
2022/10/03 13:38:45;;;;;;;2.40;0.60;;;;;;;17.29;100.00;96739.81;10413081;28;97407;-87
2022/10/03 13:43:55;;;;;;;0.65;0.50;;;;;;;17.24;100.00;96728.16;10394582;28;96946;-86
2022/10/03 13:49:09;;;;;;;2.05;0.60;;;;;;;17.14;100.00;96733.66;10374845;28;96996;-86
2022/10/03 13:54:20;;;;;;;0.93;0.52;;;;;;;17.14;100.00;96718.66;10373824;27;97302;-86
2022/10/03 13:59:52;;;;;;;0.68;0.47;;;;;;;17.12;100.00;96717.19;10374541;28;96739;-86
2022/10/03 14:05:08;;;;;;;0.55;0.47;;;;;;;17.17;100.00;96722.75;10365534;28;96869;-87
2022/10/03 14:10:25;;;;;;;1.08;0.57;;;;;;;17.15;100.00;96722.13;10374768;28;96814;-87
2022/10/03 14:15:36;;;;;;;1.98;0.50;;;;;;;17.12;100.00;96706.63;10374440;28;96734;-87
2022/10/03 14:21:19;;;;;;;0.43;0.35;;;;;;;17.09;100.00;96709.63;10373104;27;96785;-86
2022/10/03 14:26:30;;;;;;;0.55;0.45;;;;;;;17.14;100.00;96705.47;10373616;28;97004;-86
2022/10/03 14:31:38;;;;;;;0.77;0.30;;;;;;;17.16;100.00;96697.34;10373600;28;97031;-86
2022/10/03 14:36:47;;;;;;;1.45;0.30;;;;;;;17.15;100.00;96699.19;10373041;28;96760;-86
2022/10/03 14:42:15;;;;;;;0.45;0.40;;;;;;;17.16;100.00;96689.44;10373995;28;96917;-87
2022/10/03 14:47:20;;;;;;;1.65;0.40;;;;;;;17.17;100.00;96694.53;10395112;27;96980;-86
2022/10/03 14:52:34;;;;;;;0.43;0.30;;;;;;;17.11;100.00;96686.50;10412868;27;97159;-86
2022/10/03 14:57:44;;;;;;;0.65;0.32;;;;;;;17.12;100.00;96686.31;10419154;27;97047;-86
2022/10/03 15:03:32;;;;;;;0.45;0.45;;;;;;;17.09;100.00;96684.06;10401470;28;97210;-86
2022/10/03 15:08:41;;;;;;;1.23;0.32;;;;;;;17.06;100.00;96687.06;10393132;28;96771;-85
2022/10/03 15:13:50;;;;;;;1.48;0.30;;;;;;;16.95;100.00;96685.66;10394612;28;97257;-87
2022/10/03 15:18:56;;;;;;;0.65;0.30;;;;;;;16.95;100.00;96687.44;10404154;27;98814;-86
2022/10/03 15:24:04;;;;;;;1.00;0.40;;;;;;;16.91;100.00;96678.25;10419479;28;97592;-86
2022/10/03 15:29:16;;;;;;;0.85;0.30;;;;;;;17.05;100.00;96671.38;10419490;27;96821;-86
2022/10/03 15:34:23;;;;;;;1.25;0.47;;;;;;;17.15;100.00;96674.59;10419944;28;97043;-85
2022/10/03 15:39:34;;;;;;;1.17;0.30;;;;;;;17.17;100.00;96677.88;10413982;28;97049;-87
2022/10/03 15:44:39;;;;;;;1.40;0.25;;;;;;;17.19;100.00;96667.97;10378525;28;96806;-88
2022/10/03 15:49:49;;;;;;;1.58;0.22;;;;;;;17.17;100.00;96662.03;10414843;27;97481;-86
2022/10/03 15:54:57;;;;;;;0.35;0.35;;;;;;;17.17;100.00;96657.56;10418946;27;97041;-86
2022/10/03 16:00:26;;;;;;;1.15;0.50;;;;;;;17.16;100.00;96663.88;10419445;28;97182;-86
2022/10/03 16:05:29;;;;;;;1.08;0.40;;;;;;;17.12;100.00;96667.03;10443708;27;96869;-86
2022/10/03 16:10:38;;;;;;;1.23;0.60;;;;;;;17.05;100.00;96666.09;10443611;27;96887;-86
2022/10/03 16:16:00;;;;;;;1.70;0.40;;;;;;;16.96;100.00;96668.00;10423190;27;98283;-87
2022/10/03 16:21:03;;;;;;;0.30;0.30;;;;;;;16.85;100.00;96666.59;10414977;27;96701;-86
2022/10/03 16:26:15;;;;;;;0.50;0.37;;;;;;;16.75;100.00;96660.75;10439972;27;96775;-87
2022/10/03 16:31:22;;;;;;;1.15;0.55;;;;;;;16.60;100.00;96656.16;10415221;27;97054;-86
2022/10/03 16:36:26;;;;;;;1.48;0.52;;;;;;;16.41;100.00;96654.81;10415217;28;97225;-86
2022/10/03 16:41:33;;;;;;;0.47;0.30;;;;;;;16.19;100.00;96661.69;10419388;27;96999;-86
2022/10/03 16:46:39;;;;;;;1.33;0.40;;;;;;;16.03;100.00;96661.75;10407155;27;97889;-87
2022/10/03 16:51:45;;;;;;;1.90;0.63;;;;;;;15.87;100.00;96660.84;10413983;27;97052;-87
2022/10/03 16:56:55;;;;;;;1.30;0.95;;;;;;;15.74;100.00;96668.47;10407889;27;96832;-86
2022/10/03 17:02:04;;;;;;;2.88;1.38;;;;;;;15.56;100.00;96668.63;10411439;27;96923;-85
2022/10/03 17:07:15;;;;;;;2.42;1.23;;;;;;;15.45;100.00;96675.09;10415284;27;96941;-85
2022/10/03 17:12:25;;;;;;;1.55;1.13;;;;;;;15.31;100.00;96673.13;10390010;27;97844;-86
2022/10/03 17:17:32;;;;;;;0.93;0.73;;;;;;;15.23;100.00;96673.97;10443340;27;96803;-85
2022/10/03 17:22:41;;;;;;;2.67;1.10;;;;;;;15.15;100.00;96668.72;10416183;27;97083;-85
2022/10/03 17:27:49;;;;;;;2.90;1.00;;;;;;;15.07;100.00;96669.53;10404943;28;97334;-85
2022/10/03 17:32:55;;;;;;;2.88;1.60;;;;;;;14.98;100.00;96669.72;10411644;27;97182;-85
2022/10/03 17:38:14;;;;;;;4.90;1.80;;;;;;;14.88;100.00;96669.88;10405166;28;96867;-85
2022/10/03 17:43:45;;;;;;;3.03;1.58;;;;;;;14.83;100.00;96669.53;10402065;27;97369;-85
2022/10/03 17:48:56;;;;;;;4.18;1.60;;;;;;;14.79;100.00;96674.31;10401048;28;97305;-85
2022/10/03 17:54:03;;;;;;;4.18;2.50;;;;;;;14.81;100.00;96676.78;10407060;28;97071;-84
2022/10/03 17:59:14;;;;;;;4.75;1.50;;;;;;;14.83;100.00;96674.81;10402453;27;96799;-84
2022/10/03 18:04:20;;;;;;;1.92;1.40;;;;;;;14.86;100.00;96680.56;10409689;28;97140;-85
2022/10/03 18:09:39;;;;;;;3.30;2.00;;;;;;;14.83;100.00;96675.63;10403317;27;97001;-85
2022/10/03 18:14:54;;;;;;;4.25;1.70;;;;;;;14.90;100.00;96686.31;10407571;28;97130;-84
2022/10/03 18:20:18;;;;;;;5.45;2.42;;;;;;;14.91;100.00;96688.78;10416756;28;97124;-85
2022/10/03 18:31:17;;;;;;;3.33;2.00;;;;;;;14.87;100.00;96692.72;10414520;28;98095;-85
2022/10/03 18:36:25;;;;;;;3.58;1.70;;;;;;;14.88;100.00;96698.81;10417747;27;97202;-84
2022/10/03 18:41:28;;;;;;;2.25;1.30;;;;;;;14.88;100.00;96704.06;10411821;28;97225;-85
2022/10/03 18:46:39;;;;;;;2.45;1.00;;;;;;;14.87;100.00;96699.78;10418466;28;96890;-85
2022/10/03 18:51:45;;;;;;;0.68;0.60;;;;;;;14.84;100.00;96703.56;10428909;27;97236;-85
2022/10/03 18:57:02;;;;;;;2.17;0.70;;;;;;;14.82;100.00;96694.19;10411667;27;100058;-85
2022/10/03 19:02:18;;;;;;;1.13;0.77;;;;;;;14.81;100.00;96695.19;10419585;27;97367;-84
2022/10/03 19:07:23;;;;;;;1.42;1.10;;;;;;;14.80;100.00;96693.53;10432979;27;96905;-84
2022/10/03 19:12:28;;;;;;;;;;;;;;;14.71;100.00;96690.91;10420510;28;96939;-84
2022/10/03 19:17:38;;;;;;;4.23;0.87;;;;;;;14.73;100.00;96695.97;10421733;28;96729;-84
2022/10/03 19:22:48;;;;;;;3.20;1.10;;;;;;;14.75;100.00;96700.09;10420103;27;97045;-84
2022/10/03 19:27:55;;;;;;;2.20;0.82;;;;;;;14.73;100.00;96699.47;10412737;27;97018;-84
2022/10/03 19:33:05;;;;;;;2.15;1.00;;;;;;;14.65;100.00;96699.44;10418091;28;97115;-84
2022/10/03 19:38:15;;;;;;;1.77;0.88;;;;;;;14.55;100.00;96706.66;10420156;27;96795;-84
2022/10/03 19:43:41;;;;;;;1.65;1.00;;;;;;;14.52;100.00;96707.81;10461361;27;97352;-84
2022/10/03 19:48:51;;;;;;;1.55;1.00;;;;;;;14.52;100.00;96707.81;10456730;27;96888;-84
2022/10/03 19:53:56;;;;;;;0.82;0.80;;;;;;;14.55;100.00;96709.28;10460402;27;96846;-85
2022/10/03 19:59:03;;;;;;;1.55;1.00;;;;;;;14.50;100.00;96706.31;10445317;27;96736;-84
2022/10/03 20:04:07;;;;;;;2.13;1.02;;;;;;;14.50;100.00;96707.13;10418284;27;96793;-85
2022/10/03 20:09:23;;;;;;;2.80;1.00;;;;;;;14.49;100.00;96709.94;10414387;27;98805;-84
2022/10/03 20:14:31;;;;;;;9.88;6.97;;;;;;;14.52;100.00;96704.34;10413355;27;96902;-88
2022/10/03 20:19:53;;;;;;;2.33;1.60;;;;;;;14.54;100.00;96705.84;10421650;27;99398;-89
2022/10/03 20:24:56;;;;;;;4.20;1.02;;;;;;;14.56;100.00;96697.78;10415285;27;98975;-84
2022/10/03 20:30:07;;;;;;;3.13;1.00;;;;;;;14.48;100.00;96698.56;10417133;27;97740;-84
2022/10/03 20:35:15;;;;;;;2.55;1.02;;;;;;;14.48;100.00;96692.50;10417277;27;96967;-84
2022/10/03 20:40:34;;;;;;;1.17;0.80;;;;;;;14.40;100.00;96684.59;10409341;27;96930;-84
2022/10/03 20:45:38;;;;;;;1.38;1.00;;;;;;;14.40;100.00;96687.22;10415173;28;96998;-84
2022/10/03 20:50:45;;;;;;;0.70;0.70;;;;;;;14.36;100.00;96684.91;10414390;28;97282;-84
2022/10/03 20:55:52;;;;;;;1.77;0.90;;;;;;;14.30;100.00;96690.78;10414489;27;96870;-84
2022/10/03 21:01:01;;;;;;;1.60;0.75;;;;;;;14.32;100.00;96683.59;10412261;27;96845;-83
2022/10/03 21:06:18;;;;;;;1.98;1.05;;;;;;;14.40;100.00;96684.59;10409638;28;99572;-84
2022/10/03 21:11:24;;;;;;;2.03;1.00;;;;;;;14.45;100.00;96687.56;10410483;27;99050;-84
2022/10/03 21:16:30;;;;;;;4.05;2.85;;;;;;;14.48;100.00;96687.25;10436869;27;98642;-84
2022/10/03 21:21:36;;;;;;;4.13;2.95;;;;;;;14.46;100.00;96692.66;10408805;27;100306;-84
2022/10/03 21:26:47;;;;;;;4.03;2.75;;;;;;;14.44;100.00;96693.81;10410930;27;97900;-84
2022/10/03 21:32:06;;;;;;;3.80;2.00;;;;;;;14.45;100.00;96698.06;10383791;27;97484;-82
2022/10/03 21:37:17;;;;;;;5.93;2.00;;;;;;;14.44;100.00;96696.44;10414986;27;97451;-81
2022/10/03 21:42:27;;;;;;;24.45;18.17;;;;;;;14.48;100.00;96697.75;10416122;27;96737;-82
2022/10/03 21:47:38;;;;;;;2.80;1.80;;;;;;;14.47;100.00;96698.72;10414797;27;96892;-84
2022/10/03 21:53:02;;;;;;;3.03;1.80;;;;;;;14.48;100.00;96700.38;10421063;27;97520;-85
2022/10/03 21:58:19;;;;;;;3.65;1.70;;;;;;;14.42;100.00;96695.75;10415694;27;96946;-84
2022/10/03 22:03:26;;;;;;;6.47;5.32;;;;;;;14.43;100.00;96694.78;10431399;27;97185;-84
2022/10/03 22:08:34;;;;;;;4.07;2.17;;;;;;;14.39;100.00;96694.28;10413420;27;96800;-84
2022/10/03 22:13:39;;;;;;;4.28;1.52;;;;;;;14.37;100.00;96702.34;10413683;28;97036;-84
2022/10/03 22:19:13;;;;;;;3.03;1.40;;;;;;;14.35;100.00;96698.22;10416483;27;97205;-84
2022/10/03 22:24:25;;;;;;;2.75;1.70;;;;;;;14.34;100.00;96700.00;10440918;27;97197;-84
2022/10/03 22:29:35;;;;;;;2.38;1.50;;;;;;;14.28;100.00;96692.75;10427372;27;96877;-84
2022/10/03 22:34:47;;;;;;;3.00;1.65;;;;;;;14.25;100.00;96700.94;10415879;27;97322;-84
2022/10/03 22:39:52;;;;;;;2.03;1.30;;;;;;;14.27;100.00;96695.53;10417708;27;97730;-84
2022/10/03 22:44:55;;;;;;;1.50;1.10;;;;;;;14.24;100.00;96696.66;10439392;27;99051;-84
2022/10/03 22:50:03;;;;;;;2.60;1.20;;;;;;;14.24;100.00;96690.59;10430663;27;97660;-84
2022/10/03 22:55:12;;;;;;;2.17;1.17;;;;;;;14.23;100.00;96689.78;10410722;27;97138;-84
2022/10/03 23:00:17;;;;;;;6.95;4.68;;;;;;;14.21;100.00;96686.50;10418603;27;99180;-84
2022/10/03 23:05:30;;;;;;;2.80;2.15;;;;;;;14.19;100.00;96675.31;10430719;27;97040;-84
2022/10/03 23:10:47;;;;;;;4.18;1.35;;;;;;;14.13;100.00;96670.69;10441811;27;99118;-84
2022/10/03 23:15:57;;;;;;;5.25;1.80;;;;;;;14.11;100.00;96681.38;10423405;27;97975;-84
2022/10/03 23:21:06;;;;;;;3.88;2.47;;;;;;;14.11;100.00;96677.91;10417967;27;96873;-84
2022/10/03 23:26:48;;;;;;;5.90;2.22;;;;;;;14.09;100.00;96677.22;10427877;27;97216;-84
2022/10/03 23:31:54;;;;;;;2.42;1.60;;;;;;;14.09;100.00;96677.22;10415971;27;98353;-84
2022/10/03 23:37:02;;;;;;;2.97;1.50;;;;;;;14.09;100.00;96671.97;10417853;27;96979;-84
2022/10/03 23:42:10;;;;;;;3.13;1.50;;;;;;;14.10;100.00;96663.94;10414568;27;96803;-84
2022/10/03 23:47:16;;;;;;;3.50;1.63;;;;;;;14.11;100.00;96664.78;10416781;27;97338;-85
2022/10/03 23:52:24;;;;;;;2.75;1.42;;;;;;;14.10;100.00;96663.13;10415783;27;96986;-84
2022/10/03 23:57:33;;;;;;;5.57;1.73;;;;;;;14.11;100.00;96659.53;10416549;28;97502;-84
